Time;durP1;ratioP1;P1;durP2;ratioP2;P2;SDS_P1;SDS_P2;PMS_P1;PMS_P2;Temp;Humidity;BMP_temperature;BMP_pressure;BME280_temperature;BME280_humidity;BME280_pressure;Samples;Min_cycle;Max_cycle;Signal;HPM_P1;HPM_P2
2021/08/15 00:00:28;;;;;;;14.67;13.50;;;;;;;18.21;100.00;98159.72;5047556;28;20230;-68
2021/08/15 00:02:56;;;;;;;16.00;14.53;;;;;;;18.21;100.00;98156.25;5050504;28;20195;-67
2021/08/15 00:05:24;;;;;;;14.57;13.33;;;;;;;18.20;100.00;98154.59;5049795;28;20211;-67
2021/08/15 00:07:54;;;;;;;13.50;12.47;;;;;;;18.10;100.00;98146.97;5056698;28;20551;-67
2021/08/15 00:10:23;;;;;;;14.40;13.03;;;;;;;18.05;100.00;98142.22;5052050;28;20285;-67
2021/08/15 00:12:51;;;;;;;14.60;13.10;;;;;;;17.97;100.00;98137.06;5056395;28;20199;-67
2021/08/15 00:15:20;;;;;;;14.17;12.97;;;;;;;17.93;100.00;98142.00;5052145;28;20224;-67
2021/08/15 00:17:48;;;;;;;13.77;12.63;;;;;;;17.91;100.00;98145.94;5051684;28;20207;-68
2021/08/15 00:20:16;;;;;;;14.10;12.80;;;;;;;18.02;100.00;98141.84;5055557;28;20224;-68
2021/08/15 00:22:44;;;;;;;13.37;12.23;;;;;;;18.00;100.00;98138.50;5054514;28;20462;-68
2021/08/15 00:25:16;;;;;;;12.43;11.53;;;;;;;17.93;100.00;98142.00;5055704;28;20210;-68
2021/08/15 00:27:44;;;;;;;13.23;12.07;;;;;;;17.86;100.00;98143.88;5053870;28;20286;-67
2021/08/15 00:30:14;;;;;;;12.70;11.50;;;;;;;17.75;100.00;98136.47;5052030;28;20234;-67
2021/08/15 00:32:43;;;;;;;13.43;12.23;;;;;;;17.71;100.00;98132.53;5051556;28;20214;-66
2021/08/15 00:35:11;;;;;;;13.50;12.40;;;;;;;17.60;100.00;98133.97;5052994;28;20268;-68
2021/08/15 00:37:40;;;;;;;12.10;11.10;;;;;;;17.60;100.00;98132.13;5054688;28;20203;-68
2021/08/15 00:40:09;;;;;;;12.53;11.37;;;;;;;17.53;100.00;98133.97;5050438;28;20230;-68
2021/08/15 00:42:39;;;;;;;13.13;12.07;;;;;;;17.54;100.00;98126.78;5056781;28;20214;-67
2021/08/15 00:45:07;;;;;;;12.90;11.80;;;;;;;17.47;100.00;98121.41;5050878;28;20216;-66
2021/08/15 00:47:35;;;;;;;12.90;11.57;;;;;;;17.36;100.00;98123.66;5053584;28;20223;-67
2021/08/15 00:50:04;;;;;;;13.67;12.37;;;;;;;17.30;100.00;98129.00;5051042;28;20239;-66
2021/08/15 00:52:32;;;;;;;14.50;13.30;;;;;;;17.40;100.00;98123.25;5056849;28;20226;-68
2021/08/15 00:55:01;;;;;;;14.93;13.63;;;;;;;17.33;100.00;98118.72;5052890;28;20715;-68
2021/08/15 00:57:31;;;;;;;13.77;12.67;;;;;;;17.34;100.00;98123.06;5053266;28;20210;-68
2021/08/15 01:00:05;;;;;;;13.20;12.10;;;;;;;17.38;100.00;98122.63;5053805;28;20645;-67
2021/08/15 01:02:33;;;;;;;13.93;12.67;;;;;;;17.33;100.00;98109.84;5053996;28;20222;-67
2021/08/15 01:05:02;;;;;;;13.37;12.27;;;;;;;17.14;100.00;98114.16;5049039;28;20728;-67
2021/08/15 01:07:30;;;;;;;13.63;12.40;;;;;;;17.11;100.00;98110.06;5051942;28;20230;-67
2021/08/15 01:09:58;;;;;;;12.67;11.47;;;;;;;17.05;100.00;98110.88;5055383;28;20239;-66
2021/08/15 01:12:27;;;;;;;13.37;11.93;;;;;;;17.03;100.00;98103.03;5051858;28;20204;-67
2021/08/15 01:14:56;;;;;;;12.93;11.70;;;;;;;16.90;100.00;98109.13;5055667;28;20203;-68
2021/08/15 01:17:27;;;;;;;12.77;11.50;;;;;;;16.88;100.00;98102.34;5055772;28;20703;-68
2021/08/15 01:19:55;;;;;;;14.53;13.13;;;;;;;16.93;100.00;98103.38;5047792;28;20231;-66
2021/08/15 01:22:24;;;;;;;14.20;12.63;;;;;;;16.94;100.00;98098.88;5051325;28;20210;-66
2021/08/15 01:24:52;;;;;;;12.97;11.87;;;;;;;16.82;100.00;98092.44;5051480;28;20238;-68
2021/08/15 01:27:26;;;;;;;12.80;11.33;;;;;;;16.80;100.00;98098.00;5052909;28;20289;-66
2021/08/15 01:29:55;;;;;;;12.17;11.20;;;;;;;16.77;100.00;98104.56;5051987;28;20397;-68
2021/08/15 01:32:23;;;;;;;12.30;10.87;;;;;;;16.71;100.00;98108.06;5052851;28;20214;-66
2021/08/15 01:34:51;;;;;;;14.20;12.90;;;;;;;16.68;100.00;98105.78;5052502;28;20218;-68
2021/08/15 01:37:22;;;;;;;12.63;11.67;;;;;;;16.62;100.00;98102.03;5050381;28;20695;-68
2021/08/15 01:39:50;;;;;;;14.03;12.83;;;;;;;16.61;100.00;98097.72;5049370;28;20627;-68
2021/08/15 01:42:18;;;;;;;13.00;11.73;;;;;;;16.60;100.00;98097.94;5051762;28;20570;-67
2021/08/15 01:44:46;;;;;;;13.30;12.20;;;;;;;16.59;100.00;98097.09;5052830;28;20213;-66
2021/08/15 01:47:15;;;;;;;12.33;11.27;;;;;;;16.73;100.00;98099.84;5048497;28;20615;-67
2021/08/15 01:49:43;;;;;;;12.63;11.40;;;;;;;16.73;100.00;98099.84;5053588;28;20714;-68
2021/08/15 01:52:11;;;;;;;13.83;12.57;;;;;;;16.72;100.00;98099.00;5048104;28;20219;-68
2021/08/15 01:54:39;;;;;;;12.03;11.10;;;;;;;16.63;100.00;98095.66;5051943;28;20215;-66
2021/08/15 01:57:07;;;;;;;13.57;12.40;;;;;;;16.42;100.00;98093.94;5053670;28;20195;-69
2021/08/15 01:59:35;;;;;;;13.80;12.77;;;;;;;16.40;100.00;98087.97;5049295;28;20632;-67
2021/08/15 02:02:04;;;;;;;13.83;12.63;;;;;;;16.34;100.00;98091.44;5055369;28;20204;-67
2021/08/15 02:04:34;;;;;;;13.07;11.97;;;;;;;16.31;100.00;98092.69;5057980;28;20217;-69
2021/08/15 02:07:03;;;;;;;12.67;11.60;;;;;;;16.29;100.00;98091.22;5052393;28;20211;-67
2021/08/15 02:09:31;;;;;;;12.77;11.67;;;;;;;16.28;100.00;98089.56;5053901;28;20223;-66
2021/08/15 02:11:58;;;;;;;13.13;12.13;;;;;;;16.22;100.00;98095.72;5050563;28;20813;-67
2021/08/15 02:14:26;;;;;;;12.83;11.83;;;;;;;16.23;100.00;98098.19;5055907;28;20199;-68
2021/08/15 02:16:54;;;;;;;13.00;11.90;;;;;;;16.17;100.00;98094.47;5049336;28;20207;-67
2021/08/15 02:19:22;;;;;;;12.57;11.47;;;;;;;16.16;100.00;98089.31;5054306;28;20327;-67
2021/08/15 02:21:52;;;;;;;12.57;11.57;;;;;;;16.14;100.00;98084.16;5054297;28;20276;-67
2021/08/15 02:24:20;;;;;;;12.97;11.73;;;;;;;16.08;100.00;98082.25;5053126;28;20220;-65
2021/08/15 02:26:48;;;;;;;12.37;11.37;;;;;;;15.95;100.00;98088.38;5050159;28;20210;-67
2021/08/15 02:29:16;;;;;;;12.87;11.57;;;;;;;15.93;100.00;98081.56;5052102;28;20238;-67
2021/08/15 02:31:44;;;;;;;13.47;12.23;;;;;;;15.94;100.00;98077.88;5050155;28;20953;-68
2021/08/15 02:34:13;;;;;;;13.20;11.90;;;;;;;15.90;100.00;98085.44;5053517;28;20224;-69
2021/08/15 02:36:41;;;;;;;11.73;10.83;;;;;;;15.85;100.00;98072.66;5053556;28;20205;-68
2021/08/15 02:39:10;;;;;;;13.23;11.90;;;;;;;15.94;100.00;98076.03;5051523;28;20703;-66
2021/08/15 02:41:38;;;;;;;13.53;12.27;;;;;;;15.77;100.00;98092.34;5054948;28;20344;-68
2021/08/15 02:44:06;;;;;;;13.03;11.93;;;;;;;15.66;100.00;98084.88;5049411;28;20206;-67
2021/08/15 02:46:34;;;;;;;12.87;11.77;;;;;;;15.65;100.00;98087.72;5053953;28;20215;-68
2021/08/15 02:49:04;;;;;;;13.00;11.77;;;;;;;15.68;100.00;98090.84;5054445;28;20752;-68
2021/08/15 02:51:32;;;;;;;13.90;12.50;;;;;;;15.59;100.00;98086.66;5035516;28;20238;-66
2021/08/15 02:54:00;;;;;;;13.40;12.23;;;;;;;15.53;100.00;98085.59;5038962;28;20234;-66
2021/08/15 02:56:29;;;;;;;12.50;11.60;;;;;;;15.52;100.00;98081.28;5048329;28;20209;-68
2021/08/15 02:58:57;;;;;;;12.93;11.83;;;;;;;15.53;100.00;98082.06;5052401;28;20227;-67
2021/08/15 03:01:25;;;;;;;12.23;11.27;;;;;;;15.48;100.00;98078.16;5046236;28;20225;-66
2021/08/15 03:03:53;;;;;;;13.27;12.27;;;;;;;15.48;100.00;98085.34;5036029;28;20203;-66
2021/08/15 03:06:21;;;;;;;12.73;11.57;;;;;;;15.42;100.00;98081.59;5041557;28;20786;-66
2021/08/15 03:08:49;;;;;;;13.77;12.57;;;;;;;15.35;100.00;98080.72;5046698;28;20227;-66
2021/08/15 03:11:17;;;;;;;12.50;11.43;;;;;;;15.39;100.00;98084.66;5049210;28;20227;-68
2021/08/15 03:13:47;;;;;;;12.90;11.73;;;;;;;15.37;100.00;98080.53;5053329;28;20206;-68
2021/08/15 03:16:15;;;;;;;12.60;11.40;;;;;;;15.30;100.00;98077.81;5054459;28;20419;-70
2021/08/15 03:18:43;;;;;;;12.67;11.47;;;;;;;15.27;100.00;98067.50;5047718;28;20217;-70
2021/08/15 03:21:11;;;;;;;12.57;11.57;;;;;;;15.30;100.00;98073.28;5050067;28;20205;-69
2021/08/15 03:23:39;;;;;;;13.07;11.90;;;;;;;15.26;100.00;98071.19;5048878;28;20222;-70
2021/08/15 03:26:07;;;;;;;12.37;11.27;;;;;;;15.32;100.00;98076.56;5049216;28;20219;-71
2021/08/15 03:28:35;;;;;;;12.87;11.53;;;;;;;15.21;100.00;98069.09;5049295;28;20203;-70
2021/08/15 03:31:04;;;;;;;12.00;10.97;;;;;;;15.17;100.00;98071.34;5045601;28;20208;-69
2021/08/15 03:33:32;;;;;;;13.23;12.13;;;;;;;15.14;100.00;98073.56;5049563;28;20754;-70
2021/08/15 03:36:01;;;;;;;12.77;11.70;;;;;;;15.15;100.00;98075.22;5043567;28;20793;-69
2021/08/15 03:38:29;;;;;;;12.97;11.90;;;;;;;15.11;100.00;98066.75;5049416;28;20712;-69
2021/08/15 03:40:57;;;;;;;12.43;11.30;;;;;;;15.00;100.00;98062.78;5047425;28;20206;-70
2021/08/15 03:43:25;;;;;;;12.93;11.93;;;;;;;15.03;100.00;98056.22;5055244;28;20199;-69
2021/08/15 03:45:53;;;;;;;12.77;11.67;;;;;;;14.99;100.00;98060.28;5052753;28;20840;-69
2021/08/15 03:48:22;;;;;;;13.67;12.50;;;;;;;15.04;100.00;98053.34;5051101;28;20234;-66
2021/08/15 03:50:50;;;;;;;13.03;11.83;;;;;;;15.01;100.00;98059.09;5046594;28;20721;-69
2021/08/15 03:53:19;;;;;;;12.93;11.83;;;;;;;14.97;100.00;98057.81;5052096;28;20651;-69
2021/08/15 03:55:47;;;;;;;12.43;11.43;;;;;;;15.03;100.00;98057.06;5047656;28;20679;-66
2021/08/15 03:58:15;;;;;;;11.50;10.70;;;;;;;15.03;100.00;98061.53;5052521;28;20712;-67
2021/08/15 04:00:43;;;;;;;13.47;11.27;;;;;;;14.93;100.00;98067.19;5054719;28;20766;-69
2021/08/15 04:03:13;;;;;;;12.50;11.40;;;;;;;14.87;100.00;98058.13;5052298;28;20207;-68
2021/08/15 04:05:43;;;;;;;12.90;11.77;;;;;;;14.79;100.00;98063.59;5053689;28;20206;-69
2021/08/15 04:08:11;;;;;;;12.83;11.73;;;;;;;14.73;100.00;98062.50;5050663;28;20204;-71
2021/08/15 04:10:39;;;;;;;11.50;10.63;;;;;;;14.76;100.00;98074.63;5051615;28;20224;-68
2021/08/15 04:13:07;;;;;;;13.53;11.63;;;;;;;14.73;100.00;98067.84;5049916;28;20223;-68
2021/08/15 04:15:35;;;;;;;13.50;12.20;;;;;;;14.75;100.00;98065.78;5055306;28;20272;-69
2021/08/15 04:18:03;;;;;;;12.50;11.60;;;;;;;14.76;100.00;98059.44;5054184;28;20691;-68
2021/08/15 04:20:31;;;;;;;12.43;11.33;;;;;;;14.68;100.00;98066.69;5049412;28;20806;-69
2021/08/15 04:23:01;;;;;;;13.00;11.80;;;;;;;14.72;100.00;98055.50;5053382;28;20210;-70
2021/08/15 04:25:29;;;;;;;12.17;11.13;;;;;;;14.74;100.00;98063.31;5049747;28;20211;-69
2021/08/15 04:27:57;;;;;;;12.30;11.07;;;;;;;14.84;100.00;98065.66;5052901;28;20204;-68
2021/08/15 04:30:24;;;;;;;12.07;10.93;;;;;;;14.90;100.00;98060.41;5052176;28;20231;-69
2021/08/15 04:32:52;;;;;;;11.23;10.43;;;;;;;14.95;100.00;98054.47;5052710;28;20223;-70
2021/08/15 04:35:20;;;;;;;11.77;10.60;;;;;;;14.92;100.00;98054.88;5052258;28;20696;-68
2021/08/15 04:37:48;;;;;;;11.47;10.37;;;;;;;14.79;100.00;98060.94;5050219;28;20202;-69
2021/08/15 04:40:18;;;;;;;11.60;10.60;;;;;;;14.87;100.00;98060.78;5051401;28;20288;-67
2021/08/15 04:42:46;;;;;;;12.00;11.07;;;;;;;14.90;100.00;98056.91;5053849;28;20206;-68
2021/08/15 04:45:14;;;;;;;13.03;11.87;;;;;;;14.90;100.00;98051.56;5050339;28;20718;-68
2021/08/15 04:47:42;;;;;;;11.93;11.03;;;;;;;14.96;100.00;98055.31;5054498;28;20233;-66
2021/08/15 04:50:10;;;;;;;12.53;11.57;;;;;;;14.87;100.00;98049.28;5042557;28;20227;-66
2021/08/15 04:52:38;;;;;;;12.77;11.67;;;;;;;14.95;100.00;98054.47;5044951;28;20222;-66
2021/08/15 04:55:07;;;;;;;12.77;11.50;;;;;;;15.07;100.00;98051.31;5051531;28;20694;-66
2021/08/15 04:57:37;;;;;;;12.30;11.27;;;;;;;15.08;100.00;98047.63;5052277;28;20216;-66
2021/08/15 05:00:06;;;;;;;12.87;11.77;;;;;;;15.25;100.00;98051.69;5050385;28;20235;-68
2021/08/15 05:02:34;;;;;;;12.30;11.20;;;;;;;15.18;100.00;98053.47;5044199;28;20211;-67
2021/08/15 05:05:02;;;;;;;11.67;10.67;;;;;;;15.28;100.00;98055.81;5048493;28;20283;-67
2021/08/15 05:07:30;;;;;;;12.97;11.83;;;;;;;15.32;100.00;98049.06;5055021;28;20688;-70
2021/08/15 05:09:58;;;;;;;12.90;11.70;;;;;;;15.38;100.00;98056.31;5049666;28;20224;-68
2021/08/15 05:12:26;;;;;;;13.23;12.23;;;;;;;15.32;100.00;98052.56;5049192;28;20700;-68
2021/08/15 05:14:55;;;;;;;12.53;11.43;;;;;;;15.46;100.00;98060.69;5050986;28;20732;-69
2021/08/15 05:17:23;;;;;;;13.70;12.60;;;;;;;15.49;100.00;98060.28;5051083;28;20204;-68
2021/08/15 05:19:51;;;;;;;13.53;12.30;;;;;;;15.69;100.00;98054.25;5054267;28;20238;-69
2021/08/15 05:22:19;;;;;;;13.97;12.73;;;;;;;15.70;100.00;98058.56;5046323;28;20652;-66
2021/08/15 05:24:47;;;;;;;12.83;11.70;;;;;;;15.74;100.00;98057.19;5046873;28;20207;-68
2021/08/15 05:27:15;;;;;;;13.60;12.50;;;;;;;16.05;100.00;98061.28;5056645;28;20672;-68
2021/08/15 05:29:43;;;;;;;12.33;11.23;;;;;;;16.02;100.00;98059.84;5055816;28;20231;-69
2021/08/15 05:32:12;;;;;;;13.70;12.60;;;;;;;16.09;100.00;98059.84;5050150;28;20207;-69
2021/08/15 05:34:40;;;;;;;14.50;13.30;;;;;;;16.09;100.00;98059.84;5054787;28;20770;-68
2021/08/15 05:37:08;;;;;;;15.03;13.53;;;;;;;16.26;100.00;98057.66;5050302;28;20417;-68
2021/08/15 05:39:36;;;;;;;15.13;13.77;;;;;;;16.32;100.00;98054.22;5049850;28;20231;-68
2021/08/15 05:42:04;;;;;;;15.50;14.20;;;;;;;16.43;100.00;98058.16;5054903;28;20508;-71
2021/08/15 05:44:32;;;;;;;15.10;13.90;;;;;;;16.52;100.00;98061.47;5050375;28;20212;-70
2021/08/15 05:47:03;;;;;;;15.03;13.83;;;;;;;16.67;100.00;98064.00;5051121;28;20230;-70
2021/08/15 05:49:33;;;;;;;17.80;16.17;;;;;;;16.79;100.00;98056.22;5058347;28;20611;-70
2021/08/15 05:52:01;;;;;;;16.53;15.13;;;;;;;16.89;100.00;98053.97;5049976;28;20691;-69
2021/08/15 05:54:29;;;;;;;15.83;14.53;;;;;;;16.99;100.00;98053.59;5055231;28;20245;-69
2021/08/15 05:56:57;;;;;;;16.27;14.80;;;;;;;17.00;100.00;98051.72;5051535;28;20204;-68
2021/08/15 05:59:25;;;;;;;15.70;14.30;;;;;;;17.13;100.00;98051.75;5048744;28;20227;-70
2021/08/15 06:01:52;;;;;;;16.77;15.40;;;;;;;17.28;100.00;98054.25;5054568;28;20210;-70
2021/08/15 06:04:21;;;;;;;15.17;13.97;;;;;;;17.43;100.00;98055.88;5050376;28;20269;-68
2021/08/15 06:06:50;;;;;;;15.20;13.87;;;;;;;17.46;100.00;98061.66;5069205;28;20211;-70
2021/08/15 06:09:18;;;;;;;17.13;15.40;;;;;;;17.62;100.00;98057.72;5053564;28;20603;-69
2021/08/15 06:11:46;;;;;;;18.13;16.30;;;;;;;17.70;100.00;98055.84;5047094;28;20233;-70
2021/08/15 06:14:16;;;;;;;16.03;14.73;;;;;;;17.79;100.00;98049.25;5050349;28;20219;-70
2021/08/15 06:16:44;;;;;;;17.37;15.87;;;;;;;18.04;100.00;98048.59;5046992;28;20448;-69
2021/08/15 06:19:13;;;;;;;17.33;15.83;;;;;;;18.01;100.00;98047.16;5053207;28;20577;-71
2021/08/15 06:21:41;;;;;;;17.00;15.57;;;;;;;18.09;100.00;98046.09;5055026;28;20210;-71
2021/08/15 06:24:10;;;;;;;18.43;16.50;;;;;;;18.23;100.00;98045.00;5049021;28;20668;-71
2021/08/15 06:26:38;;;;;;;16.87;15.47;;;;;;;18.34;100.00;98042.69;5054254;28;20221;-68
2021/08/15 06:29:06;;;;;;;17.90;16.43;;;;;;;18.50;100.00;98038.69;5051977;28;20231;-69
2021/08/15 06:31:34;;;;;;;17.03;15.70;;;;;;;18.57;100.00;98047.56;5051025;28;20636;-70
2021/08/15 06:34:02;;;;;;;17.07;15.67;;;;;;;18.73;100.00;98048.88;5047849;28;20586;-67
2021/08/15 06:36:31;;;;;;;18.17;16.60;;;;;;;18.91;100.00;98044.66;5052233;28;20212;-69
2021/08/15 06:38:58;;;;;;;18.20;16.73;;;;;;;19.17;100.00;98050.94;5049086;28;20229;-67
2021/08/15 06:41:28;;;;;;;17.83;16.43;;;;;;;19.31;100.00;98044.41;5049678;28;20203;-70
2021/08/15 06:43:56;;;;;;;17.37;15.97;;;;;;;19.29;100.00;98049.16;5049695;28;20592;-70
2021/08/15 06:46:24;;;;;;;17.63;16.23;;;;;;;19.45;100.00;98047.78;5053418;28;20215;-71
2021/08/15 06:48:52;;;;;;;16.63;15.23;;;;;;;19.69;100.00;98041.78;5052140;28;20803;-70
2021/08/15 06:51:20;;;;;;;16.97;15.40;;;;;;;19.72;100.00;98044.88;5046605;28;20231;-69
2021/08/15 06:53:48;;;;;;;17.03;15.13;;;;;;;19.75;100.00;98044.41;5049402;28;20544;-68
2021/08/15 06:56:16;;;;;;;16.27;14.97;;;;;;;19.95;100.00;98036.19;5049841;28;20406;-69
2021/08/15 06:58:45;;;;;;;16.13;14.77;;;;;;;20.15;100.00;98042.38;5049963;28;20203;-68
2021/08/15 07:01:13;;;;;;;15.57;14.37;;;;;;;20.41;100.00;98041.22;5043585;28;20607;-70
2021/08/15 07:03:42;;;;;;;15.23;13.83;;;;;;;20.43;100.00;98044.50;5050664;28;20209;-68
2021/08/15 07:06:10;;;;;;;15.83;14.43;;;;;;;20.63;100.00;98032.63;5047854;28;20216;-67
2021/08/15 07:08:38;;;;;;;15.87;14.47;;;;;;;20.63;100.00;98038.00;5048324;28;20211;-68
2021/08/15 07:11:06;;;;;;;16.50;14.80;;;;;;;20.79;100.00;98039.28;5050071;28;20202;-70
2021/08/15 07:13:34;;;;;;;15.30;13.80;;;;;;;21.02;100.00;98038.50;5049407;28;20596;-68
2021/08/15 07:16:05;;;;;;;15.93;14.50;;;;;;;20.99;100.00;98038.97;5047492;28;20203;-69
2021/08/15 07:18:33;;;;;;;13.80;12.70;;;;;;;21.06;100.00;98038.88;5056838;28;20217;-69
2021/08/15 07:21:02;;;;;;;14.37;13.17;;;;;;;21.16;100.00;98038.31;5056766;28;20199;-69
2021/08/15 07:23:30;;;;;;;13.97;12.97;;;;;;;21.37;100.00;98036.94;5051754;28;20744;-70
2021/08/15 07:25:58;;;;;;;14.17;13.00;;;;;;;21.48;100.00;98046.91;5058398;28;20298;-68
2021/08/15 07:28:26;;;;;;;14.10;12.90;;;;;;;21.61;100.00;98043.16;5053960;28;20648;-68
2021/08/15 07:30:54;;;;;;;14.87;13.57;;;;;;;21.75;97.92;98041.09;5052850;28;20614;-68
2021/08/15 07:33:24;;;;;;;14.80;13.50;;;;;;;21.83;96.53;98039.91;5050657;28;20218;-68
2021/08/15 07:35:52;;;;;;;13.20;12.00;;;;;;;21.90;95.29;98037.91;5055055;28;20218;-68
2021/08/15 07:38:21;;;;;;;13.90;12.77;;;;;;;22.09;92.42;98029.63;5055396;28;20207;-69
2021/08/15 07:40:49;;;;;;;12.97;11.87;;;;;;;22.20;89.96;98034.22;5055747;28;20227;-69
2021/08/15 07:43:17;;;;;;;12.50;11.40;;;;;;;22.27;82.73;98034.88;5051362;28;20210;-67
2021/08/15 07:45:45;;;;;;;11.20;10.13;;;;;;;22.50;77.31;98035.88;5057567;28;20210;-69
2021/08/15 07:48:13;;;;;;;10.93;9.93;;;;;;;22.68;75.29;98023.25;5052940;28;20787;-69
2021/08/15 07:50:42;;;;;;;11.97;11.07;;;;;;;22.64;80.25;98030.22;5052808;28;20263;-69
2021/08/15 07:53:22;;;;;;;12.67;11.57;;;;;;;22.73;79.79;98028.75;5054893;28;20622;-70
2021/08/15 07:55:51;;;;;;;12.53;11.43;;;;;;;22.83;79.15;98036.22;5054144;28;20227;-68
2021/08/15 07:58:19;;;;;;;10.37;9.47;;;;;;;23.04;70.41;98033.84;5050865;28;20199;-69
2021/08/15 08:00:48;;;;;;;11.70;10.70;;;;;;;23.11;73.28;98038.06;5054568;28;20222;-68
2021/08/15 08:03:16;;;;;;;11.90;11.03;;;;;;;23.25;73.00;98035.03;5052735;28;20230;-70
2021/08/15 08:05:46;;;;;;;12.00;10.97;;;;;;;23.49;73.30;98034.88;5053566;28;20302;-70
2021/08/15 08:08:14;;;;;;;12.67;11.40;;;;;;;23.54;75.59;98035.78;5049441;28;20208;-69
2021/08/15 08:10:44;;;;;;;12.23;11.37;;;;;;;23.76;75.05;98035.00;5056741;28;20222;-70
2021/08/15 08:13:12;;;;;;;11.27;10.43;;;;;;;23.82;73.59;98028.59;5050777;28;20213;-69
2021/08/15 08:15:41;;;;;;;11.17;10.33;;;;;;;23.91;70.54;98026.28;5052098;28;20226;-69
2021/08/15 08:18:09;;;;;;;11.70;10.80;;;;;;;23.99;68.82;98022.31;5059160;28;20242;-68
2021/08/15 08:20:38;;;;;;;12.20;11.10;;;;;;;24.08;69.70;98028.97;5053016;28;20248;-70
2021/08/15 08:23:09;;;;;;;11.43;10.40;;;;;;;24.20;68.58;98019.88;5054725;28;20204;-68
2021/08/15 08:25:38;;;;;;;10.60;9.80;;;;;;;24.35;61.97;98016.53;5054007;28;20789;-70
2021/08/15 08:28:06;;;;;;;8.67;7.97;;;;;;;24.53;59.68;98018.09;5052593;28;20660;-69
2021/08/15 08:30:34;;;;;;;9.97;9.17;;;;;;;24.33;63.75;98011.41;5056087;28;20232;-68
2021/08/15 08:33:02;;;;;;;9.37;8.60;;;;;;;24.36;62.56;98004.63;5055510;28;20196;-69
2021/08/15 08:35:30;;;;;;;8.37;7.50;;;;;;;24.29;58.75;98010.28;5055202;28;20228;-70
2021/08/15 08:37:58;;;;;;;6.50;6.10;;;;;;;24.30;49.54;98011.06;5048112;28;20644;-70
2021/08/15 08:40:28;;;;;;;5.43;5.10;;;;;;;24.43;47.67;98006.09;5048086;28;20250;-67
2021/08/15 08:42:56;;;;;;;6.87;6.37;;;;;;;24.54;48.74;97995.34;5046596;28;20205;-68
2021/08/15 08:45:26;;;;;;;6.70;6.10;;;;;;;24.61;49.82;98001.38;5049313;28;20226;-66
2021/08/15 08:47:55;;;;;;;6.57;6.03;;;;;;;24.65;49.40;97999.81;5053954;28;20203;-68
2021/08/15 08:50:24;;;;;;;6.40;5.90;;;;;;;24.78;46.73;97992.38;5051007;28;20233;-67
2021/08/15 08:52:52;;;;;;;6.73;6.23;;;;;;;24.51;51.59;97985.88;5051359;28;20205;-68
2021/08/15 08:55:20;;;;;;;8.27;7.57;;;;;;;24.63;53.54;97983.00;5052204;28;20625;-67
2021/08/15 08:57:50;;;;;;;8.83;7.33;;;;;;;24.97;50.97;97988.19;5052466;28;20221;-68
2021/08/15 09:00:19;;;;;;;7.47;6.70;;;;;;;25.11;51.93;97983.16;5051137;28;20253;-70
2021/08/15 09:02:47;;;;;;;8.10;7.40;;;;;;;25.28;52.14;97987.63;5049930;28;20743;-68
2021/08/15 09:05:31;;;;;;;7.50;7.00;;;;;;;25.33;53.16;97981.41;5049992;28;20194;-68
2021/08/15 09:08:04;;;;;;;8.33;7.63;;;;;;;25.42;52.17;97983.38;5051155;28;20289;-69
2021/08/15 09:10:34;;;;;;;8.07;7.47;;;;;;;25.32;53.69;97985.19;5052700;28;20241;-68
2021/08/15 09:13:05;;;;;;;7.63;7.10;;;;;;;25.44;52.13;97986.63;5052361;28;20197;-69
2021/08/15 09:15:33;;;;;;;7.83;7.13;;;;;;;25.53;51.71;97972.59;5051617;28;20817;-69
2021/08/15 09:18:01;;;;;;;8.60;7.63;;;;;;;25.50;54.64;97971.25;5055561;28;20203;-69
2021/08/15 09:20:41;;;;;;;8.70;7.90;;;;;;;25.54;52.63;97966.09;5047260;28;20230;-69
2021/08/15 09:23:19;;;;;;;7.93;7.33;;;;;;;25.66;51.79;97964.00;5055720;28;20203;-70
2021/08/15 09:25:47;;;;;;;8.30;7.07;;;;;;;25.60;52.50;97965.06;5049555;28;20224;-67
2021/08/15 09:28:17;;;;;;;7.70;7.10;;;;;;;25.82;51.91;97970.34;5048735;28;20216;-69
2021/08/15 09:30:44;;;;;;;7.70;7.10;;;;;;;25.84;51.92;97962.75;5053470;28;20465;-67
2021/08/15 09:33:17;;;;;;;7.70;7.17;;;;;;;26.06;49.99;97950.06;5048692;28;20996;-69
2021/08/15 09:35:49;;;;;;;7.20;6.43;;;;;;;25.89;50.75;97955.69;5049868;28;20223;-68
2021/08/15 09:38:19;;;;;;;7.77;7.17;;;;;;;26.09;51.14;97955.75;5050197;28;20553;-69
2021/08/15 09:40:49;;;;;;;7.30;6.47;;;;;;;26.01;50.36;97951.69;5055752;28;20225;-70
2021/08/15 09:43:21;;;;;;;6.57;5.93;;;;;;;26.04;51.16;97950.31;5053583;28;20212;-69
2021/08/15 09:45:50;;;;;;;7.37;6.77;;;;;;;26.28;50.32;97947.97;5048790;28;20300;-69
2021/08/15 09:48:31;;;;;;;7.20;6.43;;;;;;;26.43;50.46;97951.81;5052903;28;20199;-69
2021/08/15 09:51:09;;;;;;;7.57;7.03;;;;;;;26.55;51.45;97949.66;5056653;28;20213;-69
2021/08/15 09:53:39;;;;;;;7.47;6.37;;;;;;;26.56;51.33;97948.56;5056474;28;20238;-70
2021/08/15 09:56:08;;;;;;;7.27;6.67;;;;;;;26.54;50.22;97953.44;5046596;28;20245;-69
2021/08/15 09:58:37;;;;;;;7.50;6.90;;;;;;;26.66;50.27;97945.03;5051902;28;20217;-69
2021/08/15 10:01:06;;;;;;;7.77;7.03;;;;;;;26.77;49.42;97950.47;5053521;28;20836;-68
2021/08/15 10:03:36;;;;;;;7.10;6.60;;;;;;;26.78;50.78;97952.94;5050002;28;20213;-70
2021/08/15 10:06:04;;;;;;;7.37;6.73;;;;;;;26.98;50.93;97948.59;5051374;28;20219;-69
2021/08/15 10:08:32;;;;;;;7.03;6.40;;;;;;;27.09;50.80;97943.97;5046866;28;20447;-69
2021/08/15 10:11:00;;;;;;;7.03;6.63;;;;;;;27.14;50.78;97938.53;5050747;28;20204;-68
2021/08/15 10:13:28;;;;;;;7.43;6.87;;;;;;;27.24;49.78;97935.78;5054454;28;20706;-69
2021/08/15 10:16:02;;;;;;;7.97;7.17;;;;;;;27.27;50.70;97931.72;5047079;28;20228;-69
2021/08/15 10:18:31;;;;;;;6.70;6.03;;;;;;;27.50;51.01;97926.78;5051699;28;20252;-68
2021/08/15 10:21:03;;;;;;;7.50;6.90;;;;;;;27.57;50.10;97925.41;5055543;28;20203;-69
2021/08/15 10:23:39;;;;;;;7.37;6.77;;;;;;;27.86;50.31;97918.50;5053850;28;20211;-69
2021/08/15 10:26:41;;;;;;;7.80;6.97;;;;;;;27.75;48.66;97923.16;5047477;28;20211;-69
2021/08/15 10:29:38;;;;;;;7.33;6.83;;;;;;;28.10;46.94;97913.19;5053866;28;20778;-67
2021/08/15 10:32:13;;;;;;;9.87;7.33;;;;;;;27.73;47.78;97912.53;5050282;28;20716;-69
2021/08/15 10:35:15;;;;;;;7.90;7.27;;;;;;;28.16;45.83;97912.09;5053809;28;20222;-68
2021/08/15 10:37:49;;;;;;;6.97;6.37;;;;;;;28.00;47.02;97910.50;5049624;28;20211;-69
2021/08/15 10:40:50;;;;;;;7.97;7.33;;;;;;;27.90;47.00;97905.13;5050913;28;20222;-69
2021/08/15 10:43:51;;;;;;;7.70;7.00;;;;;;;28.34;45.91;97900.81;4976800;28;20202;-69
2021/08/15 10:46:22;;;;;;;8.17;7.47;;;;;;;28.38;46.09;97899.94;4976064;28;20385;-69
2021/08/15 10:48:56;;;;;;;7.20;6.50;;;;;;;28.68;45.85;97889.91;5030836;28;20257;-70
2021/08/15 10:51:50;;;;;;;8.00;7.33;;;;;;;29.11;45.84;97889.28;5048282;28;20213;-69
2021/08/15 10:55:05;;;;;;;7.33;6.83;;;;;;;29.89;42.56;97877.47;5050147;28;20201;-70
2021/08/15 10:57:47;;;;;;;7.43;6.83;;;;;;;30.25;42.42;97870.69;5033834;28;20214;-68
2021/08/15 11:00:47;;;;;;;6.60;6.17;;;;;;;30.29;43.23;97867.09;5047821;28;20272;-68
2021/08/15 11:03:35;;;;;;;7.50;6.90;;;;;;;30.68;40.31;97878.78;4999349;28;20206;-70
2021/08/15 11:06:06;;;;;;;7.68;6.97;;;;;;;30.57;41.94;97869.09;5047180;28;20288;-69
2021/08/15 11:08:54;;;;;;;7.78;7.18;;;;;;;30.24;42.68;97858.97;5050317;28;20204;-69
2021/08/15 11:11:33;;;;;;;8.50;7.70;;;;;;;29.99;43.73;97858.22;5052439;28;20203;-69
2021/08/15 11:14:29;;;;;;;7.50;7.00;;;;;;;30.36;41.76;97854.97;5048443;28;20280;-68
2021/08/15 11:17:13;;;;;;;7.33;6.93;;;;;;;30.41;43.47;97854.88;5048914;28;20285;-69
2021/08/15 11:19:42;;;;;;;8.52;7.45;;;;;;;30.88;43.19;97855.75;5046349;28;20223;-70
2021/08/15 11:22:17;;;;;;;7.83;7.10;;;;;;;30.83;43.49;97855.81;5049245;28;20208;-70
2021/08/15 11:24:50;;;;;;;7.00;6.50;;;;;;;30.77;40.83;97846.09;5046481;28;20219;-68
2021/08/15 11:27:25;;;;;;;7.05;6.50;;;;;;;30.49;42.43;97837.00;5049066;28;20207;-69
2021/08/15 11:29:53;;;;;;;7.30;6.77;;;;;;;30.91;40.27;97837.91;5049227;28;20237;-70